Thursday, July 24, 2014
02:25 UTC
  |  Log In   |  Register Free
Airport Search:

Williamsburg-Jamestown Airport
(KJGG)

Williamsburg-Jamestown Airport Diagram
No Airport Diagram Available

FAA data valid effective May 29, 2014 until July 24, 2014 (unless otherwise noted).

 
 
 
 
 
 
 
 
 
 
 
 
 
 

Current Aviation Weather for Williamsburg-Jamestown Airport (KJGG)

The most recent METAR observation for KJGG was updated at: 0135 UTC
METAR Summary (Translated METAR)
KJGG
240135Z AUTO 18004KT 10SM CLR 29/24 A2988 RMK AO1
KFAF
(8.2 nm SE from KJGG)
240058Z AUTO 19004KT 10SM CLR 29/24 A2987 RMK AO2 SLP118 T02890235 $
TAF Summary (Translated TAF)
KFAF
(8.2 nm SE from KJGG)
2318/2424 16009KT 9999 SKC QNH2989INS BECMG 2408/2409 21006KT 8000 BR SCT015 BKN030 QNH2990INS BECMG 2414/2415 24010KT 9000 -SHRA SCT020 OVC030 QNH2991INS TEMPO 2421/2424 25015G25KT 4800 -TSRA OVC025CB BECMG 2423/2424 33008KT 9999 NSW BKN025 OVC120 QNH2995INS TX33/2420Z TN23/2410Z LAST NO AMDS AFT 2403 NEXT 2410
KPHF
(12.5 nm SE from KJGG)
231737Z 2318/2418 21009KT P6SM SCT035 FM240000 22008KT P6SM BKN250 FM240600 25006KT P6SM BKN120 FM241400 32006KT P6SM BKN025 BKN120
  Airport Weather Conditions for KJGG

 Current Weather at JGG
84° F
Fair
South winds at 4.6 mph
JGG NOAA Radar

Pressure: 29.88 in
Humidity: 74%
Wind: South at 4.6 MPH (4 KT)
Dew Point: 75.2°F
Visibility: 10.00 mi


Airport Weather Forecast for KJGG

Translated METAR and TAF for KJGG
Translated METAR for KJGG (0219 UTC 24 July 2014)
found at http://aviationweather.gov/adds/metars/
 
METAR text: KJGG 240155Z AUTO 18005KT 10SM CLR 29/24 A2988 RMK AO1
Conditions at: KJGG (WILLIAMSBURG , VA, US) observed 0155 UTC 24 July 2014
Temperature: 29.0°C (84°F)
Dewpoint: 24.0°C (75°F) [RH = 74%]
Pressure (altimeter): 29.88 inches Hg (1011.9 mb)
Winds: from the S (180 degrees) at 6 MPH (5 knots; 2.6 m/s)
Visibility: 10 or more miles (16+ km)
Ceiling: at least 12,000 feet AGL
Clouds: sky clear below 12,000 feet AGL
Weather: automated observation with no human augmentation;
there may or may not be significant weather present at this time
Translated TAF for KJGG

There is no translated TAF available for this airport

Find All Airport Services Find A Hotel Find A Rental Car Find A Golf Course Find A Restaurant $100 Hamburger



FBO's on the Field
FBO Company Facility Photos Services Transportation Aviation Fuel Prices: Prices include tax
Catering Weather Repair Courtesy Rental Type 100LL JetA JetA+ MOGAS 8087
 
Williamsburg-Jamestown

This FBO has not yet been rated
FS:Shell
Last Updated: Jun-30
Login to update fuel prices
SS:
Contact Williamsburg-JamestownMore FBO Information
 
Add another FBO Facility Photos Catering Weather Repair Courtesy Rental Type 100LL JetA JetA+ MOGAS 8087
Services Transportation Aviation Fuel Prices: Prices include tax


GlobalAir.com Airport Resource Center model-print
model-print
model-print
model-print